sensor_id;sensor_type;location;lat;lon;timestamp;P1;durP1;ratioP1;P2;durP2;ratioP2
14098;SDS011;7126;48.458;7.930;2023-04-06T00:01:02;0.73;;;0.73;;
14098;SDS011;7126;48.458;7.930;2023-04-06T00:03:28;0.40;;;0.40;;
14098;SDS011;7126;48.458;7.930;2023-04-06T00:05:53;0.43;;;0.43;;
14098;SDS011;7126;48.458;7.930;2023-04-06T00:08:19;1.55;;;0.50;;
14098;SDS011;7126;48.458;7.930;2023-04-06T00:10:46;0.70;;;0.45;;
14098;SDS011;7126;48.458;7.930;2023-04-06T00:13:12;0.52;;;0.52;;
14098;SDS011;7126;48.458;7.930;2023-04-06T00:15:37;0.60;;;0.60;;
14098;SDS011;7126;48.458;7.930;2023-04-06T00:18:03;0.75;;;0.75;;
14098;SDS011;7126;48.458;7.930;2023-04-06T00:20:29;0.60;;;0.60;;
14098;SDS011;7126;48.458;7.930;2023-04-06T00:22:55;0.47;;;0.47;;
14098;SDS011;7126;48.458;7.930;2023-04-06T00:25:20;0.38;;;0.38;;
14098;SDS011;7126;48.458;7.930;2023-04-06T00:27:46;0.50;;;0.50;;
14098;SDS011;7126;48.458;7.930;2023-04-06T00:30:11;2.28;;;1.00;;
14098;SDS011;7126;48.458;7.930;2023-04-06T00:32:37;0.40;;;0.40;;
14098;SDS011;7126;48.458;7.930;2023-04-06T00:35:03;0.68;;;0.68;;
14098;SDS011;7126;48.458;7.930;2023-04-06T00:37:29;0.73;;;0.73;;
14098;SDS011;7126;48.458;7.930;2023-04-06T00:39:55;0.40;;;0.40;;
14098;SDS011;7126;48.458;7.930;2023-04-06T00:42:22;0.70;;;0.70;;
14098;SDS011;7126;48.458;7.930;2023-04-06T00:44:52;0.32;;;0.32;;
14098;SDS011;7126;48.458;7.930;2023-04-06T00:47:19;0.90;;;0.90;;
14098;SDS011;7126;48.458;7.930;2023-04-06T00:49:45;0.22;;;0.22;;
14098;SDS011;7126;48.458;7.930;2023-04-06T00:52:11;0.50;;;0.50;;
14098;SDS011;7126;48.458;7.930;2023-04-06T00:54:36;0.50;;;0.50;;
14098;SDS011;7126;48.458;7.930;2023-04-06T00:57:02;0.60;;;0.60;;
14098;SDS011;7126;48.458;7.930;2023-04-06T00:59:28;0.77;;;0.77;;
14098;SDS011;7126;48.458;7.930;2023-04-06T01:01:54;0.50;;;0.50;;
14098;SDS011;7126;48.458;7.930;2023-04-06T01:04:20;0.40;;;0.40;;
14098;SDS011;7126;48.458;7.930;2023-04-06T01:06:48;0.43;;;0.40;;
14098;SDS011;7126;48.458;7.930;2023-04-06T01:09:14;0.35;;;0.35;;
14098;SDS011;7126;48.458;7.930;2023-04-06T01:11:39;0.43;;;0.43;;
14098;SDS011;7126;48.458;7.930;2023-04-06T01:14:05;0.73;;;0.50;;
14098;SDS011;7126;48.458;7.930;2023-04-06T01:16:31;0.75;;;0.75;;
14098;SDS011;7126;48.458;7.930;2023-04-06T01:18:57;0.55;;;0.55;;
14098;SDS011;7126;48.458;7.930;2023-04-06T01:21:22;0.90;;;0.70;;
14098;SDS011;7126;48.458;7.930;2023-04-06T01:23:48;0.55;;;0.30;;
14098;SDS011;7126;48.458;7.930;2023-04-06T01:26:14;0.60;;;0.60;;
14098;SDS011;7126;48.458;7.930;2023-04-06T01:28:39;0.82;;;0.82;;
14098;SDS011;7126;48.458;7.930;2023-04-06T01:31:08;0.30;;;0.30;;
14098;SDS011;7126;48.458;7.930;2023-04-06T01:33:35;0.63;;;0.63;;
14098;SDS011;7126;48.458;7.930;2023-04-06T01:36:01;0.85;;;0.85;;
14098;SDS011;7126;48.458;7.930;2023-04-06T01:38:27;0.57;;;0.40;;
14098;SDS011;7126;48.458;7.930;2023-04-06T01:40:55;0.32;;;0.32;;
14098;SDS011;7126;48.458;7.930;2023-04-06T01:43:21;0.40;;;0.40;;
14098;SDS011;7126;48.458;7.930;2023-04-06T01:45:47;0.30;;;0.30;;
14098;SDS011;7126;48.458;7.930;2023-04-06T01:48:13;0.70;;;0.70;;
14098;SDS011;7126;48.458;7.930;2023-04-06T01:50:39;0.40;;;0.40;;
14098;SDS011;7126;48.458;7.930;2023-04-06T01:53:04;1.05;;;1.05;;
14098;SDS011;7126;48.458;7.930;2023-04-06T01:55:30;0.50;;;0.50;;
14098;SDS011;7126;48.458;7.930;2023-04-06T01:57:55;0.28;;;0.28;;
14098;SDS011;7126;48.458;7.930;2023-04-06T02:00:21;0.50;;;0.50;;
14098;SDS011;7126;48.458;7.930;2023-04-06T02:02:47;0.22;;;0.22;;
14098;SDS011;7126;48.458;7.930;2023-04-06T02:05:12;0.30;;;0.30;;
14098;SDS011;7126;48.458;7.930;2023-04-06T02:07:38;0.30;;;0.30;;
14098;SDS011;7126;48.458;7.930;2023-04-06T02:10:04;0.30;;;0.30;;
14098;SDS011;7126;48.458;7.930;2023-04-06T02:12:35;0.13;;;0.13;;
14098;SDS011;7126;48.458;7.930;2023-04-06T02:15:01;0.55;;;0.55;;
14098;SDS011;7126;48.458;7.930;2023-04-06T02:17:27;0.30;;;0.30;;
14098;SDS011;7126;48.458;7.930;2023-04-06T02:19:52;1.10;;;1.10;;
14098;SDS011;7126;48.458;7.930;2023-04-06T02:22:18;0.55;;;0.55;;
14098;SDS011;7126;48.458;7.930;2023-04-06T02:24:43;0.50;;;0.50;;
14098;SDS011;7126;48.458;7.930;2023-04-06T02:27:09;1.00;;;0.68;;
14098;SDS011;7126;48.458;7.930;2023-04-06T02:29:35;1.20;;;1.10;;
14098;SDS011;7126;48.458;7.930;2023-04-06T02:32:00;0.30;;;0.30;;
14098;SDS011;7126;48.458;7.930;2023-04-06T02:34:26;0.30;;;0.30;;
14098;SDS011;7126;48.458;7.930;2023-04-06T02:36:52;0.50;;;0.50;;
14098;SDS011;7126;48.458;7.930;2023-04-06T02:39:19;0.30;;;0.30;;
14098;SDS011;7126;48.458;7.930;2023-04-06T02:41:44;0.40;;;0.40;;
14098;SDS011;7126;48.458;7.930;2023-04-06T02:44:10;0.40;;;0.40;;
14098;SDS011;7126;48.458;7.930;2023-04-06T02:46:35;0.30;;;0.30;;
14098;SDS011;7126;48.458;7.930;2023-04-06T02:49:01;0.40;;;0.40;;
14098;SDS011;7126;48.458;7.930;2023-04-06T02:51:27;0.40;;;0.40;;
14098;SDS011;7126;48.458;7.930;2023-04-06T02:53:53;0.50;;;0.50;;
14098;SDS011;7126;48.458;7.930;2023-04-06T02:56:18;0.32;;;0.30;;
14098;SDS011;7126;48.458;7.930;2023-04-06T02:58:46;0.80;;;0.80;;
14098;SDS011;7126;48.458;7.930;2023-04-06T03:01:11;0.40;;;0.40;;
14098;SDS011;7126;48.458;7.930;2023-04-06T03:03:37;0.68;;;0.68;;
14098;SDS011;7126;48.458;7.930;2023-04-06T03:06:02;1.50;;;0.73;;
14098;SDS011;7126;48.458;7.930;2023-04-06T03:08:28;0.20;;;0.20;;
14098;SDS011;7126;48.458;7.930;2023-04-06T03:10:54;1.87;;;0.60;;
14098;SDS011;7126;48.458;7.930;2023-04-06T03:13:20;0.33;;;0.33;;
14098;SDS011;7126;48.458;7.930;2023-04-06T03:15:45;0.60;;;0.60;;
14098;SDS011;7126;48.458;7.930;2023-04-06T03:18:11;0.60;;;0.60;;
14098;SDS011;7126;48.458;7.930;2023-04-06T03:20:37;0.40;;;0.40;;
14098;SDS011;7126;48.458;7.930;2023-04-06T03:23:02;0.50;;;0.50;;
14098;SDS011;7126;48.458;7.930;2023-04-06T03:25:28;0.50;;;0.50;;
14098;SDS011;7126;48.458;7.930;2023-04-06T03:27:55;0.47;;;0.47;;
14098;SDS011;7126;48.458;7.930;2023-04-06T03:30:20;0.50;;;0.50;;
14098;SDS011;7126;48.458;7.930;2023-04-06T03:32:46;0.30;;;0.30;;
14098;SDS011;7126;48.458;7.930;2023-04-06T03:35:12;0.13;;;0.13;;
14098;SDS011;7126;48.458;7.930;2023-04-06T03:37:38;0.23;;;0.23;;
14098;SDS011;7126;48.458;7.930;2023-04-06T03:40:04;0.68;;;0.68;;
14098;SDS011;7126;48.458;7.930;2023-04-06T03:42:30;0.40;;;0.40;;
14098;SDS011;7126;48.458;7.930;2023-04-06T03:44:57;0.30;;;0.30;;
14098;SDS011;7126;48.458;7.930;2023-04-06T03:47:23;0.30;;;0.27;;
14098;SDS011;7126;48.458;7.930;2023-04-06T03:49:49;0.43;;;0.43;;
14098;SDS011;7126;48.458;7.930;2023-04-06T03:52:15;0.63;;;0.60;;
14098;SDS011;7126;48.458;7.930;2023-04-06T03:54:40;0.20;;;0.20;;
14098;SDS011;7126;48.458;7.930;2023-04-06T03:57:06;0.50;;;0.50;;
14098;SDS011;7126;48.458;7.930;2023-04-06T03:59:32;0.13;;;0.13;;
14098;SDS011;7126;48.458;7.930;2023-04-06T04:01:57;0.70;;;0.70;;
14098;SDS011;7126;48.458;7.930;2023-04-06T04:04:23;0.53;;;0.53;;
14098;SDS011;7126;48.458;7.930;2023-04-06T04:06:48;0.30;;;0.30;;
14098;SDS011;7126;48.458;7.930;2023-04-06T04:09:14;0.20;;;0.20;;
14098;SDS011;7126;48.458;7.930;2023-04-06T04:11:40;0.35;;;0.35;;
14098;SDS011;7126;48.458;7.930;2023-04-06T04:14:06;0.32;;;0.32;;
14098;SDS011;7126;48.458;7.930;2023-04-06T04:16:31;0.88;;;0.60;;
14098;SDS011;7126;48.458;7.930;2023-04-06T04:18:57;0.30;;;0.30;;
14098;SDS011;7126;48.458;7.930;2023-04-06T04:21:23;0.40;;;0.40;;
14098;SDS011;7126;48.458;7.930;2023-04-06T04:23:50;0.30;;;0.30;;
14098;SDS011;7126;48.458;7.930;2023-04-06T04:26:17;0.60;;;0.57;;
14098;SDS011;7126;48.458;7.930;2023-04-06T04:28:43;0.43;;;0.43;;
14098;SDS011;7126;48.458;7.930;2023-04-06T04:31:09;0.53;;;0.53;;
14098;SDS011;7126;48.458;7.930;2023-04-06T04:33:35;0.50;;;0.47;;
14098;SDS011;7126;48.458;7.930;2023-04-06T04:36:00;0.50;;;0.50;;
14098;SDS011;7126;48.458;7.930;2023-04-06T04:38:26;0.40;;;0.40;;
14098;SDS011;7126;48.458;7.930;2023-04-06T04:40:52;0.40;;;0.40;;
14098;SDS011;7126;48.458;7.930;2023-04-06T04:43:17;0.40;;;0.40;;
14098;SDS011;7126;48.458;7.930;2023-04-06T04:45:43;0.53;;;0.50;;
14098;SDS011;7126;48.458;7.930;2023-04-06T04:48:09;0.20;;;0.20;;
14098;SDS011;7126;48.458;7.930;2023-04-06T04:50:34;0.30;;;0.30;;
14098;SDS011;7126;48.458;7.930;2023-04-06T04:53:00;0.40;;;0.40;;
14098;SDS011;7126;48.458;7.930;2023-04-06T04:55:26;1.43;;;1.33;;
14098;SDS011;7126;48.458;7.930;2023-04-06T04:57:52;0.30;;;0.30;;
14098;SDS011;7126;48.458;7.930;2023-04-06T05:00:18;0.50;;;0.50;;
14098;SDS011;7126;48.458;7.930;2023-04-06T05:02:44;0.40;;;0.40;;
14098;SDS011;7126;48.458;7.930;2023-04-06T05:05:10;0.40;;;0.40;;
14098;SDS011;7126;48.458;7.930;2023-04-06T05:07:36;1.00;;;0.57;;
14098;SDS011;7126;48.458;7.930;2023-04-06T05:10:01;0.77;;;0.30;;
14098;SDS011;7126;48.458;7.930;2023-04-06T05:12:27;0.40;;;0.40;;
14098;SDS011;7126;48.458;7.930;2023-04-06T05:14:53;0.23;;;0.23;;
14098;SDS011;7126;48.458;7.930;2023-04-06T05:17:19;1.23;;;0.37;;
14098;SDS011;7126;48.458;7.930;2023-04-06T05:19:45;0.60;;;0.60;;
14098;SDS011;7126;48.458;7.930;2023-04-06T05:22:11;0.53;;;0.40;;
14098;SDS011;7126;48.458;7.930;2023-04-06T05:24:39;0.40;;;0.40;;
14098;SDS011;7126;48.458;7.930;2023-04-06T05:27:05;0.30;;;0.30;;
14098;SDS011;7126;48.458;7.930;2023-04-06T05:29:31;0.40;;;0.40;;
14098;SDS011;7126;48.458;7.930;2023-04-06T05:31:56;0.60;;;0.60;;
14098;SDS011;7126;48.458;7.930;2023-04-06T05:34:22;0.67;;;0.50;;
14098;SDS011;7126;48.458;7.930;2023-04-06T05:36:47;0.57;;;0.57;;
14098;SDS011;7126;48.458;7.930;2023-04-06T05:39:13;0.37;;;0.37;;
14098;SDS011;7126;48.458;7.930;2023-04-06T05:41:39;0.87;;;0.87;;
14098;SDS011;7126;48.458;7.930;2023-04-06T05:44:04;0.60;;;0.60;;
14098;SDS011;7126;48.458;7.930;2023-04-06T05:46:30;0.40;;;0.40;;
14098;SDS011;7126;48.458;7.930;2023-04-06T05:48:56;0.50;;;0.50;;
14098;SDS011;7126;48.458;7.930;2023-04-06T05:51:21;0.40;;;0.40;;
14098;SDS011;7126;48.458;7.930;2023-04-06T05:53:47;0.20;;;0.20;;
14098;SDS011;7126;48.458;7.930;2023-04-06T05:56:12;0.50;;;0.50;;
14098;SDS011;7126;48.458;7.930;2023-04-06T05:58:38;0.63;;;0.63;;
14098;SDS011;7126;48.458;7.930;2023-04-06T06:01:04;1.53;;;1.43;;
14098;SDS011;7126;48.458;7.930;2023-04-06T06:03:29;0.60;;;0.60;;
14098;SDS011;7126;48.458;7.930;2023-04-06T06:06:04;0.50;;;0.30;;
14098;SDS011;7126;48.458;7.930;2023-04-06T06:08:30;0.40;;;0.40;;
14098;SDS011;7126;48.458;7.930;2023-04-06T06:10:56;0.43;;;0.43;;
14098;SDS011;7126;48.458;7.930;2023-04-06T06:13:24;0.60;;;0.60;;
14098;SDS011;7126;48.458;7.930;2023-04-06T06:15:50;0.30;;;0.30;;
14098;SDS011;7126;48.458;7.930;2023-04-06T06:18:15;0.60;;;0.60;;
14098;SDS011;7126;48.458;7.930;2023-04-06T06:20:41;0.43;;;0.43;;
14098;SDS011;7126;48.458;7.930;2023-04-06T06:23:07;0.60;;;0.60;;
14098;SDS011;7126;48.458;7.930;2023-04-06T06:25:32;0.87;;;0.87;;
14098;SDS011;7126;48.458;7.930;2023-04-06T06:27:58;0.70;;;0.70;;
14098;SDS011;7126;48.458;7.930;2023-04-06T06:30:24;0.33;;;0.33;;
14098;SDS011;7126;48.458;7.930;2023-04-06T06:32:51;0.40;;;0.40;;
14098;SDS011;7126;48.458;7.930;2023-04-06T06:35:17;0.40;;;0.40;;
14098;SDS011;7126;48.458;7.930;2023-04-06T06:37:42;0.50;;;0.50;;
14098;SDS011;7126;48.458;7.930;2023-04-06T06:40:08;0.77;;;0.77;;
14098;SDS011;7126;48.458;7.930;2023-04-06T06:42:35;0.57;;;0.57;;
14098;SDS011;7126;48.458;7.930;2023-04-06T06:45:01;0.53;;;0.53;;
14098;SDS011;7126;48.458;7.930;2023-04-06T06:47:26;0.93;;;0.77;;
14098;SDS011;7126;48.458;7.930;2023-04-06T06:49:52;0.17;;;0.17;;
14098;SDS011;7126;48.458;7.930;2023-04-06T06:52:17;0.30;;;0.30;;
14098;SDS011;7126;48.458;7.930;2023-04-06T06:54:43;1.00;;;0.70;;
14098;SDS011;7126;48.458;7.930;2023-04-06T06:57:09;0.90;;;0.90;;
14098;SDS011;7126;48.458;7.930;2023-04-06T06:59:35;0.33;;;0.33;;
14098;SDS011;7126;48.458;7.930;2023-04-06T07:02:00;0.40;;;0.40;;
14098;SDS011;7126;48.458;7.930;2023-04-06T07:04:26;0.60;;;0.60;;
14098;SDS011;7126;48.458;7.930;2023-04-06T07:06:52;0.50;;;0.50;;
14098;SDS011;7126;48.458;7.930;2023-04-06T07:09:17;0.30;;;0.30;;
14098;SDS011;7126;48.458;7.930;2023-04-06T07:11:43;1.57;;;1.47;;
14098;SDS011;7126;48.458;7.930;2023-04-06T07:14:09;0.80;;;0.80;;
14098;SDS011;7126;48.458;7.930;2023-04-06T07:16:36;0.65;;;0.65;;
14098;SDS011;7126;48.458;7.930;2023-04-06T07:19:02;0.38;;;0.38;;
14098;SDS011;7126;48.458;7.930;2023-04-06T07:21:28;0.60;;;0.60;;
14098;SDS011;7126;48.458;7.930;2023-04-06T07:23:53;0.50;;;0.50;;
14098;SDS011;7126;48.458;7.930;2023-04-06T07:26:19;0.80;;;0.80;;
14098;SDS011;7126;48.458;7.930;2023-04-06T07:28:45;0.60;;;0.60;;
14098;SDS011;7126;48.458;7.930;2023-04-06T07:31:10;1.02;;;1.02;;
14098;SDS011;7126;48.458;7.930;2023-04-06T07:33:36;4.40;;;1.17;;
14098;SDS011;7126;48.458;7.930;2023-04-06T07:36:02;0.77;;;0.77;;
14098;SDS011;7126;48.458;7.930;2023-04-06T07:38:28;0.30;;;0.30;;
14098;SDS011;7126;48.458;7.930;2023-04-06T07:40:53;4.68;;;1.50;;
14098;SDS011;7126;48.458;7.930;2023-04-06T07:43:19;1.48;;;0.77;;
14098;SDS011;7126;48.458;7.930;2023-04-06T07:45:45;0.70;;;0.70;;
14098;SDS011;7126;48.458;7.930;2023-04-06T07:48:10;0.43;;;0.43;;
14098;SDS011;7126;48.458;7.930;2023-04-06T07:50:36;0.90;;;0.90;;
14098;SDS011;7126;48.458;7.930;2023-04-06T07:53:02;0.80;;;0.80;;
14098;SDS011;7126;48.458;7.930;2023-04-06T07:55:27;0.95;;;0.95;;
14098;SDS011;7126;48.458;7.930;2023-04-06T07:57:53;0.50;;;0.50;;
14098;SDS011;7126;48.458;7.930;2023-04-06T08:00:19;0.43;;;0.43;;
14098;SDS011;7126;48.458;7.930;2023-04-06T08:02:45;0.57;;;0.57;;
14098;SDS011;7126;48.458;7.930;2023-04-06T08:05:10;0.60;;;0.60;;
14098;SDS011;7126;48.458;7.930;2023-04-06T08:07:36;0.70;;;0.70;;
14098;SDS011;7126;48.458;7.930;2023-04-06T08:10:02;0.73;;;0.73;;
14098;SDS011;7126;48.458;7.930;2023-04-06T08:12:27;0.88;;;0.88;;
14098;SDS011;7126;48.458;7.930;2023-04-06T08:14:53;1.08;;;1.08;;
14098;SDS011;7126;48.458;7.930;2023-04-06T08:17:19;0.38;;;0.38;;
14098;SDS011;7126;48.458;7.930;2023-04-06T08:19:45;0.43;;;0.43;;
14098;SDS011;7126;48.458;7.930;2023-04-06T08:22:11;0.60;;;0.60;;
14098;SDS011;7126;48.458;7.930;2023-04-06T08:24:36;0.50;;;0.50;;
14098;SDS011;7126;48.458;7.930;2023-04-06T08:27:02;1.05;;;1.05;;
14098;SDS011;7126;48.458;7.930;2023-04-06T08:29:28;0.77;;;0.77;;
14098;SDS011;7126;48.458;7.930;2023-04-06T08:31:54;0.60;;;0.60;;
14098;SDS011;7126;48.458;7.930;2023-04-06T08:34:20;0.40;;;0.40;;
14098;SDS011;7126;48.458;7.930;2023-04-06T08:36:46;0.60;;;0.60;;
14098;SDS011;7126;48.458;7.930;2023-04-06T08:39:12;1.38;;;1.23;;
14098;SDS011;7126;48.458;7.930;2023-04-06T08:41:37;1.35;;;0.98;;
14098;SDS011;7126;48.458;7.930;2023-04-06T08:44:04;0.73;;;0.73;;
14098;SDS011;7126;48.458;7.930;2023-04-06T08:46:30;1.13;;;0.75;;
14098;SDS011;7126;48.458;7.930;2023-04-06T08:49:02;3.60;;;1.50;;
14098;SDS011;7126;48.458;7.930;2023-04-06T08:51:28;0.85;;;0.85;;
14098;SDS011;7126;48.458;7.930;2023-04-06T08:53:58;0.70;;;0.70;;
14098;SDS011;7126;48.458;7.930;2023-04-06T08:56:25;1.02;;;1.02;;
14098;SDS011;7126;48.458;7.930;2023-04-06T08:58:53;0.80;;;0.80;;
14098;SDS011;7126;48.458;7.930;2023-04-06T09:01:23;0.98;;;0.98;;
14098;SDS011;7126;48.458;7.930;2023-04-06T09:03:50;1.52;;;1.45;;
14098;SDS011;7126;48.458;7.930;2023-04-06T09:06:20;1.15;;;1.13;;
14098;SDS011;7126;48.458;7.930;2023-04-06T09:08:46;0.80;;;0.80;;
14098;SDS011;7126;48.458;7.930;2023-04-06T09:11:12;0.95;;;0.90;;
14098;SDS011;7126;48.458;7.930;2023-04-06T09:16:19;1.17;;;1.08;;
14098;SDS011;7126;48.458;7.930;2023-04-06T09:18:45;0.90;;;0.90;;
14098;SDS011;7126;48.458;7.930;2023-04-06T09:21:11;0.80;;;0.80;;
14098;SDS011;7126;48.458;7.930;2023-04-06T09:23:37;0.93;;;0.93;;
14098;SDS011;7126;48.458;7.930;2023-04-06T09:26:06;1.17;;;1.17;;
14098;SDS011;7126;48.458;7.930;2023-04-06T09:28:49;0.73;;;0.73;;
14098;SDS011;7126;48.458;7.930;2023-04-06T09:31:26;1.10;;;1.10;;
14098;SDS011;7126;48.458;7.930;2023-04-06T09:33:53;1.73;;;1.67;;
14098;SDS011;7126;48.458;7.930;2023-04-06T09:36:20;1.30;;;1.30;;
14098;SDS011;7126;48.458;7.930;2023-04-06T09:38:55;0.50;;;0.50;;
14098;SDS011;7126;48.458;7.930;2023-04-06T09:41:26;0.85;;;0.85;;
14098;SDS011;7126;48.458;7.930;2023-04-06T09:46:28;2.90;;;1.30;;
14098;SDS011;7126;48.458;7.930;2023-04-06T09:49:06;1.08;;;1.08;;
14098;SDS011;7126;48.458;7.930;2023-04-06T09:54:20;1.58;;;1.50;;
14098;SDS011;7126;48.458;7.930;2023-04-06T09:56:51;1.85;;;1.75;;
14098;SDS011;7126;48.458;7.930;2023-04-06T09:59:36;0.98;;;0.98;;
14098;SDS011;7126;48.458;7.930;2023-04-06T10:02:03;1.63;;;1.48;;
14098;SDS011;7126;48.458;7.930;2023-04-06T10:04:36;1.20;;;1.10;;
14098;SDS011;7126;48.458;7.930;2023-04-06T10:07:08;1.60;;;1.50;;
14098;SDS011;7126;48.458;7.930;2023-04-06T10:09:37;1.30;;;1.30;;
14098;SDS011;7126;48.458;7.930;2023-04-06T10:12:03;1.90;;;1.48;;
14098;SDS011;7126;48.458;7.930;2023-04-06T10:14:31;1.30;;;1.30;;
14098;SDS011;7126;48.458;7.930;2023-04-06T10:17:00;0.85;;;0.85;;
14098;SDS011;7126;48.458;7.930;2023-04-06T10:19:28;1.00;;;1.00;;
14098;SDS011;7126;48.458;7.930;2023-04-06T10:22:18;0.88;;;0.88;;
14098;SDS011;7126;48.458;7.930;2023-04-06T10:24:52;1.20;;;1.20;;
14098;SDS011;7126;48.458;7.930;2023-04-06T10:27:27;1.38;;;1.27;;
14098;SDS011;7126;48.458;7.930;2023-04-06T10:29:54;1.10;;;1.10;;
14098;SDS011;7126;48.458;7.930;2023-04-06T10:32:36;1.27;;;1.23;;
14098;SDS011;7126;48.458;7.930;2023-04-06T10:35:06;1.50;;;1.40;;
14098;SDS011;7126;48.458;7.930;2023-04-06T10:37:45;1.38;;;1.30;;
14098;SDS011;7126;48.458;7.930;2023-04-06T10:40:27;2.45;;;1.15;;
14098;SDS011;7126;48.458;7.930;2023-04-06T10:42:54;1.00;;;1.00;;
14098;SDS011;7126;48.458;7.930;2023-04-06T10:45:24;1.10;;;1.10;;
14098;SDS011;7126;48.458;7.930;2023-04-06T10:47:54;1.05;;;1.05;;
14098;SDS011;7126;48.458;7.930;2023-04-06T10:50:20;0.88;;;0.88;;
14098;SDS011;7126;48.458;7.930;2023-04-06T10:52:47;1.05;;;1.05;;
14098;SDS011;7126;48.458;7.930;2023-04-06T10:55:22;1.42;;;1.40;;
14098;SDS011;7126;48.458;7.930;2023-04-06T10:57:49;2.00;;;1.90;;
14098;SDS011;7126;48.458;7.930;2023-04-06T11:00:14;1.00;;;1.00;;
14098;SDS011;7126;48.458;7.930;2023-04-06T11:02:40;1.42;;;1.30;;
14098;SDS011;7126;48.458;7.930;2023-04-06T11:05:06;2.28;;;1.48;;
14098;SDS011;7126;48.458;7.930;2023-04-06T11:07:32;1.35;;;1.25;;
14098;SDS011;7126;48.458;7.930;2023-04-06T11:09:58;2.53;;;1.42;;
14098;SDS011;7126;48.458;7.930;2023-04-06T11:12:24;1.75;;;1.65;;
14098;SDS011;7126;48.458;7.930;2023-04-06T11:14:55;1.77;;;1.67;;
14098;SDS011;7126;48.458;7.930;2023-04-06T11:17:26;2.70;;;1.20;;
14098;SDS011;7126;48.458;7.930;2023-04-06T11:19:52;2.15;;;1.95;;
14098;SDS011;7126;48.458;7.930;2023-04-06T11:22:18;1.75;;;1.17;;
14098;SDS011;7126;48.458;7.930;2023-04-06T11:24:44;1.45;;;1.35;;
14098;SDS011;7126;48.458;7.930;2023-04-06T11:27:09;1.98;;;1.88;;
14098;SDS011;7126;48.458;7.930;2023-04-06T11:29:35;1.70;;;1.60;;
14098;SDS011;7126;48.458;7.930;2023-04-06T11:32:06;1.75;;;1.65;;
14098;SDS011;7126;48.458;7.930;2023-04-06T11:34:33;1.45;;;1.35;;
14098;SDS011;7126;48.458;7.930;2023-04-06T11:37:03;1.52;;;1.52;;
14098;SDS011;7126;48.458;7.930;2023-04-06T11:39:32;1.08;;;1.08;;
14098;SDS011;7126;48.458;7.930;2023-04-06T11:42:04;4.47;;;1.90;;
14098;SDS011;7126;48.458;7.930;2023-04-06T11:44:36;1.98;;;1.88;;
14098;SDS011;7126;48.458;7.930;2023-04-06T11:47:04;1.95;;;1.85;;
14098;SDS011;7126;48.458;7.930;2023-04-06T11:49:32;1.40;;;1.30;;
14098;SDS011;7126;48.458;7.930;2023-04-06T11:52:01;2.08;;;1.45;;
14098;SDS011;7126;48.458;7.930;2023-04-06T11:54:34;1.33;;;1.33;;
14098;SDS011;7126;48.458;7.930;2023-04-06T11:57:02;1.75;;;1.65;;
14098;SDS011;7126;48.458;7.930;2023-04-06T11:59:29;1.70;;;1.60;;
14098;SDS011;7126;48.458;7.930;2023-04-06T12:01:55;1.45;;;1.35;;
14098;SDS011;7126;48.458;7.930;2023-04-06T12:04:21;1.30;;;1.20;;
14098;SDS011;7126;48.458;7.930;2023-04-06T12:06:47;1.17;;;1.17;;
14098;SDS011;7126;48.458;7.930;2023-04-06T12:09:13;1.50;;;1.40;;
14098;SDS011;7126;48.458;7.930;2023-04-06T12:11:38;1.80;;;1.70;;
14098;SDS011;7126;48.458;7.930;2023-04-06T12:14:05;1.48;;;1.30;;
14098;SDS011;7126;48.458;7.930;2023-04-06T12:16:32;1.33;;;1.33;;
14098;SDS011;7126;48.458;7.930;2023-04-06T12:18:59;1.30;;;1.27;;
14098;SDS011;7126;48.458;7.930;2023-04-06T12:21:26;2.05;;;1.50;;
14098;SDS011;7126;48.458;7.930;2023-04-06T12:23:53;1.85;;;1.75;;
14098;SDS011;7126;48.458;7.930;2023-04-06T12:26:19;1.40;;;1.30;;
14098;SDS011;7126;48.458;7.930;2023-04-06T12:28:46;1.10;;;0.98;;
14098;SDS011;7126;48.458;7.930;2023-04-06T12:31:15;1.95;;;1.80;;
14098;SDS011;7126;48.458;7.930;2023-04-06T12:33:49;1.30;;;1.30;;
14098;SDS011;7126;48.458;7.930;2023-04-06T12:36:18;1.00;;;1.00;;
14098;SDS011;7126;48.458;7.930;2023-04-06T12:38:45;1.50;;;1.50;;
14098;SDS011;7126;48.458;7.930;2023-04-06T12:41:14;1.00;;;1.00;;
14098;SDS011;7126;48.458;7.930;2023-04-06T12:43:43;1.85;;;1.40;;
14098;SDS011;7126;48.458;7.930;2023-04-06T12:46:09;1.73;;;1.30;;
14098;SDS011;7126;48.458;7.930;2023-04-06T12:48:35;1.92;;;1.33;;
14098;SDS011;7126;48.458;7.930;2023-04-06T12:51:02;1.73;;;1.63;;
14098;SDS011;7126;48.458;7.930;2023-04-06T12:53:29;1.30;;;1.30;;
14098;SDS011;7126;48.458;7.930;2023-04-06T12:55:56;0.90;;;0.90;;
14098;SDS011;7126;48.458;7.930;2023-04-06T12:58:22;1.40;;;1.30;;
14098;SDS011;7126;48.458;7.930;2023-04-06T13:00:48;1.00;;;1.00;;
14098;SDS011;7126;48.458;7.930;2023-04-06T13:03:15;1.42;;;1.30;;
14098;SDS011;7126;48.458;7.930;2023-04-06T13:05:48;2.28;;;1.73;;
14098;SDS011;7126;48.458;7.930;2023-04-06T13:08:16;1.58;;;1.48;;
14098;SDS011;7126;48.458;7.930;2023-04-06T13:10:43;0.95;;;0.95;;
14098;SDS011;7126;48.458;7.930;2023-04-06T13:13:09;1.73;;;1.55;;
14098;SDS011;7126;48.458;7.930;2023-04-06T13:15:35;1.73;;;1.63;;
14098;SDS011;7126;48.458;7.930;2023-04-06T13:18:01;1.85;;;1.33;;
14098;SDS011;7126;48.458;7.930;2023-04-06T13:20:27;1.67;;;1.65;;
14098;SDS011;7126;48.458;7.930;2023-04-06T13:22:53;1.60;;;1.50;;
14098;SDS011;7126;48.458;7.930;2023-04-06T13:25:19;1.45;;;1.45;;
14098;SDS011;7126;48.458;7.930;2023-04-06T13:27:45;1.58;;;1.48;;
14098;SDS011;7126;48.458;7.930;2023-04-06T13:30:12;2.42;;;2.08;;
14098;SDS011;7126;48.458;7.930;2023-04-06T13:32:38;1.08;;;1.00;;
14098;SDS011;7126;48.458;7.930;2023-04-06T13:35:04;1.30;;;1.30;;
14098;SDS011;7126;48.458;7.930;2023-04-06T13:37:31;4.13;;;1.58;;
14098;SDS011;7126;48.458;7.930;2023-04-06T13:39:57;1.83;;;1.73;;
14098;SDS011;7126;48.458;7.930;2023-04-06T13:42:23;1.33;;;1.30;;
14098;SDS011;7126;48.458;7.930;2023-04-06T13:44:48;1.23;;;1.23;;
14098;SDS011;7126;48.458;7.930;2023-04-06T13:47:15;1.45;;;1.42;;
14098;SDS011;7126;48.458;7.930;2023-04-06T13:49:41;1.50;;;1.17;;
14098;SDS011;7126;48.458;7.930;2023-04-06T13:52:07;3.20;;;2.05;;
14098;SDS011;7126;48.458;7.930;2023-04-06T13:54:34;2.72;;;2.42;;
14098;SDS011;7126;48.458;7.930;2023-04-06T13:57:00;1.55;;;1.20;;
14098;SDS011;7126;48.458;7.930;2023-04-06T13:59:31;1.40;;;1.35;;
14098;SDS011;7126;48.458;7.930;2023-04-06T14:01:58;1.42;;;1.33;;
14098;SDS011;7126;48.458;7.930;2023-04-06T14:04:24;1.33;;;1.30;;
14098;SDS011;7126;48.458;7.930;2023-04-06T14:06:49;1.38;;;1.27;;
14098;SDS011;7126;48.458;7.930;2023-04-06T14:09:15;1.55;;;1.27;;
14098;SDS011;7126;48.458;7.930;2023-04-06T14:11:40;1.80;;;1.60;;
14098;SDS011;7126;48.458;7.930;2023-04-06T14:14:06;0.98;;;0.98;;
14098;SDS011;7126;48.458;7.930;2023-04-06T14:16:32;1.25;;;1.20;;
14098;SDS011;7126;48.458;7.930;2023-04-06T14:18:57;1.13;;;1.13;;
14098;SDS011;7126;48.458;7.930;2023-04-06T14:21:23;1.90;;;1.75;;
14098;SDS011;7126;48.458;7.930;2023-04-06T14:23:49;1.25;;;1.15;;
14098;SDS011;7126;48.458;7.930;2023-04-06T14:26:15;1.30;;;1.25;;
14098;SDS011;7126;48.458;7.930;2023-04-06T14:28:41;1.92;;;1.80;;
14098;SDS011;7126;48.458;7.930;2023-04-06T14:31:11;1.30;;;1.17;;
14098;SDS011;7126;48.458;7.930;2023-04-06T14:33:38;1.20;;;1.20;;
14098;SDS011;7126;48.458;7.930;2023-04-06T14:36:04;1.60;;;1.55;;
14098;SDS011;7126;48.458;7.930;2023-04-06T14:38:32;0.82;;;0.82;;
14098;SDS011;7126;48.458;7.930;2023-04-06T14:40:57;1.25;;;1.15;;
14098;SDS011;7126;48.458;7.930;2023-04-06T14:43:23;0.82;;;0.82;;
14098;SDS011;7126;48.458;7.930;2023-04-06T14:45:49;1.52;;;1.42;;
14098;SDS011;7126;48.458;7.930;2023-04-06T14:48:15;1.63;;;1.52;;
14098;SDS011;7126;48.458;7.930;2023-04-06T14:50:51;1.50;;;1.40;;
14098;SDS011;7126;48.458;7.930;2023-04-06T14:53:18;1.83;;;1.70;;
14098;SDS011;7126;48.458;7.930;2023-04-06T14:55:44;1.98;;;1.15;;
14098;SDS011;7126;48.458;7.930;2023-04-06T14:58:09;1.15;;;1.15;;
14098;SDS011;7126;48.458;7.930;2023-04-06T15:00:36;1.83;;;1.35;;
14098;SDS011;7126;48.458;7.930;2023-04-06T15:03:03;1.30;;;1.25;;
14098;SDS011;7126;48.458;7.930;2023-04-06T15:05:29;1.17;;;1.17;;